sensor_id;sensor_type;location;lat;lon;timestamp;P1;durP1;ratioP1;P2;durP2;ratioP2
9076;SDS011;4574;51.072;17.174;2023-02-14T00:01:46;15.37;;;10.17;;
9076;SDS011;4574;51.072;17.174;2023-02-14T00:04:17;14.77;;;9.73;;
9076;SDS011;4574;51.072;17.174;2023-02-14T00:06:46;15.03;;;9.60;;
9076;SDS011;4574;51.072;17.174;2023-02-14T00:09:15;15.33;;;10.30;;
9076;SDS011;4574;51.072;17.174;2023-02-14T00:11:45;15.67;;;9.73;;
9076;SDS011;4574;51.072;17.174;2023-02-14T00:14:13;17.07;;;9.63;;
9076;SDS011;4574;51.072;17.174;2023-02-14T00:17:00;13.23;;;9.87;;
9076;SDS011;4574;51.072;17.174;2023-02-14T00:19:30;15.83;;;10.83;;
9076;SDS011;4574;51.072;17.174;2023-02-14T00:22:00;13.70;;;9.73;;
9076;SDS011;4574;51.072;17.174;2023-02-14T00:24:28;15.80;;;9.97;;
9076;SDS011;4574;51.072;17.174;2023-02-14T00:26:57;16.03;;;9.93;;
9076;SDS011;4574;51.072;17.174;2023-02-14T00:29:26;176.97;;;101.40;;
9076;SDS011;4574;51.072;17.174;2023-02-14T00:31:56;180.17;;;89.17;;
9076;SDS011;4574;51.072;17.174;2023-02-14T00:34:25;235.07;;;108.90;;
9076;SDS011;4574;51.072;17.174;2023-02-14T00:36:56;100.57;;;49.60;;
9076;SDS011;4574;51.072;17.174;2023-02-14T00:39:24;120.20;;;67.27;;
9076;SDS011;4574;51.072;17.174;2023-02-14T00:41:53;24.93;;;15.90;;
9076;SDS011;4574;51.072;17.174;2023-02-14T00:44:21;18.97;;;10.80;;
9076;SDS011;4574;51.072;17.174;2023-02-14T00:46:50;16.50;;;10.97;;
9076;SDS011;4574;51.072;17.174;2023-02-14T00:49:19;17.50;;;10.87;;
9076;SDS011;4574;51.072;17.174;2023-02-14T00:51:47;14.97;;;10.50;;
9076;SDS011;4574;51.072;17.174;2023-02-14T00:54:17;13.40;;;10.33;;
9076;SDS011;4574;51.072;17.174;2023-02-14T00:56:46;15.13;;;10.40;;
9076;SDS011;4574;51.072;17.174;2023-02-14T00:59:14;12.63;;;9.20;;
9076;SDS011;4574;51.072;17.174;2023-02-14T01:01:44;14.27;;;9.70;;
9076;SDS011;4574;51.072;17.174;2023-02-14T01:04:16;13.80;;;9.93;;
9076;SDS011;4574;51.072;17.174;2023-02-14T01:06:45;15.97;;;9.93;;
9076;SDS011;4574;51.072;17.174;2023-02-14T01:09:13;14.60;;;10.20;;
9076;SDS011;4574;51.072;17.174;2023-02-14T01:11:43;15.83;;;9.90;;
9076;SDS011;4574;51.072;17.174;2023-02-14T01:14:11;16.93;;;10.20;;
9076;SDS011;4574;51.072;17.174;2023-02-14T01:16:40;13.70;;;10.30;;
9076;SDS011;4574;51.072;17.174;2023-02-14T01:19:08;17.33;;;10.90;;
9076;SDS011;4574;51.072;17.174;2023-02-14T01:21:36;14.63;;;10.53;;
9076;SDS011;4574;51.072;17.174;2023-02-14T01:24:05;12.73;;;9.90;;
9076;SDS011;4574;51.072;17.174;2023-02-14T01:26:35;15.93;;;10.10;;
9076;SDS011;4574;51.072;17.174;2023-02-14T01:29:05;16.07;;;10.27;;
9076;SDS011;4574;51.072;17.174;2023-02-14T01:31:33;16.00;;;10.57;;
9076;SDS011;4574;51.072;17.174;2023-02-14T01:34:03;14.97;;;9.33;;
9076;SDS011;4574;51.072;17.174;2023-02-14T01:36:32;14.83;;;10.13;;
9076;SDS011;4574;51.072;17.174;2023-02-14T01:39:03;15.67;;;10.40;;
9076;SDS011;4574;51.072;17.174;2023-02-14T01:41:33;14.00;;;9.90;;
9076;SDS011;4574;51.072;17.174;2023-02-14T01:44:06;14.27;;;9.33;;
9076;SDS011;4574;51.072;17.174;2023-02-14T01:46:54;13.03;;;9.37;;
9076;SDS011;4574;51.072;17.174;2023-02-14T01:49:24;17.33;;;9.93;;
9076;SDS011;4574;51.072;17.174;2023-02-14T01:51:55;14.23;;;10.00;;
9076;SDS011;4574;51.072;17.174;2023-02-14T01:54:29;14.77;;;9.10;;
9076;SDS011;4574;51.072;17.174;2023-02-14T01:57:01;14.27;;;9.30;;
9076;SDS011;4574;51.072;17.174;2023-02-14T01:59:35;14.00;;;9.87;;
9076;SDS011;4574;51.072;17.174;2023-02-14T02:02:07;17.53;;;10.10;;
9076;SDS011;4574;51.072;17.174;2023-02-14T02:04:37;16.77;;;10.00;;
9076;SDS011;4574;51.072;17.174;2023-02-14T02:07:11;14.17;;;9.50;;
9076;SDS011;4574;51.072;17.174;2023-02-14T02:09:45;16.80;;;10.13;;
9076;SDS011;4574;51.072;17.174;2023-02-14T02:12:18;15.83;;;9.93;;
9076;SDS011;4574;51.072;17.174;2023-02-14T02:14:48;14.00;;;9.67;;
9076;SDS011;4574;51.072;17.174;2023-02-14T02:17:21;14.73;;;9.80;;
9076;SDS011;4574;51.072;17.174;2023-02-14T02:20:20;15.17;;;10.87;;
9076;SDS011;4574;51.072;17.174;2023-02-14T02:26:09;14.20;;;9.03;;
9076;SDS011;4574;51.072;17.174;2023-02-14T02:29:06;14.70;;;8.90;;
9076;SDS011;4574;51.072;17.174;2023-02-14T02:35:04;11.83;;;8.77;;
9076;SDS011;4574;51.072;17.174;2023-02-14T02:37:50;14.23;;;9.07;;
9076;SDS011;4574;51.072;17.174;2023-02-14T02:40:32;12.20;;;8.73;;
9076;SDS011;4574;51.072;17.174;2023-02-14T02:43:14;11.53;;;7.83;;
9076;SDS011;4574;51.072;17.174;2023-02-14T02:45:54;12.03;;;8.90;;
9076;SDS011;4574;51.072;17.174;2023-02-14T02:48:47;13.50;;;8.90;;
9076;SDS011;4574;51.072;17.174;2023-02-14T02:51:28;11.83;;;8.43;;
9076;SDS011;4574;51.072;17.174;2023-02-14T02:54:22;14.43;;;8.27;;
9076;SDS011;4574;51.072;17.174;2023-02-14T02:56:56;11.47;;;7.70;;
9076;SDS011;4574;51.072;17.174;2023-02-14T02:59:28;11.53;;;8.13;;
9076;SDS011;4574;51.072;17.174;2023-02-14T03:02:00;11.63;;;8.77;;
9076;SDS011;4574;51.072;17.174;2023-02-14T03:04:41;12.90;;;8.77;;
9076;SDS011;4574;51.072;17.174;2023-02-14T03:07:20;10.47;;;7.90;;
9076;SDS011;4574;51.072;17.174;2023-02-14T03:10:06;13.30;;;8.00;;
9076;SDS011;4574;51.072;17.174;2023-02-14T03:12:48;13.93;;;8.40;;
9076;SDS011;4574;51.072;17.174;2023-02-14T03:15:39;9.83;;;7.67;;
9076;SDS011;4574;51.072;17.174;2023-02-14T03:18:47;11.33;;;8.37;;
9076;SDS011;4574;51.072;17.174;2023-02-14T03:21:33;9.30;;;7.67;;
9076;SDS011;4574;51.072;17.174;2023-02-14T03:24:08;11.07;;;8.30;;
9076;SDS011;4574;51.072;17.174;2023-02-14T03:26:44;13.03;;;8.63;;
9076;SDS011;4574;51.072;17.174;2023-02-14T03:29:18;10.97;;;7.80;;
9076;SDS011;4574;51.072;17.174;2023-02-14T03:31:54;10.67;;;7.30;;
9076;SDS011;4574;51.072;17.174;2023-02-14T03:34:29;12.07;;;7.50;;
9076;SDS011;4574;51.072;17.174;2023-02-14T03:37:03;11.80;;;7.07;;
9076;SDS011;4574;51.072;17.174;2023-02-14T03:39:38;10.43;;;7.20;;
9076;SDS011;4574;51.072;17.174;2023-02-14T03:42:13;11.37;;;7.70;;
9076;SDS011;4574;51.072;17.174;2023-02-14T03:44:46;10.00;;;7.30;;
9076;SDS011;4574;51.072;17.174;2023-02-14T03:47:17;9.70;;;7.53;;
9076;SDS011;4574;51.072;17.174;2023-02-14T03:49:51;9.43;;;7.30;;
9076;SDS011;4574;51.072;17.174;2023-02-14T03:52:23;9.57;;;6.93;;
9076;SDS011;4574;51.072;17.174;2023-02-14T03:54:55;9.63;;;7.20;;
9076;SDS011;4574;51.072;17.174;2023-02-14T03:57:27;15.83;;;7.70;;
9076;SDS011;4574;51.072;17.174;2023-02-14T04:00:02;9.40;;;6.87;;
9076;SDS011;4574;51.072;17.174;2023-02-14T04:02:35;10.00;;;7.40;;
9076;SDS011;4574;51.072;17.174;2023-02-14T04:05:07;10.73;;;6.90;;
9076;SDS011;4574;51.072;17.174;2023-02-14T04:07:43;12.57;;;7.03;;
9076;SDS011;4574;51.072;17.174;2023-02-14T04:10:14;10.20;;;7.93;;
9076;SDS011;4574;51.072;17.174;2023-02-14T04:12:44;8.97;;;7.17;;
9076;SDS011;4574;51.072;17.174;2023-02-14T04:15:13;10.50;;;7.97;;
9076;SDS011;4574;51.072;17.174;2023-02-14T04:17:42;9.00;;;6.60;;
9076;SDS011;4574;51.072;17.174;2023-02-14T04:20:28;11.80;;;7.53;;
9076;SDS011;4574;51.072;17.174;2023-02-14T04:22:56;11.10;;;7.60;;
9076;SDS011;4574;51.072;17.174;2023-02-14T04:25:29;10.57;;;7.00;;
9076;SDS011;4574;51.072;17.174;2023-02-14T04:27:58;8.80;;;7.00;;
9076;SDS011;4574;51.072;17.174;2023-02-14T04:30:26;12.30;;;8.33;;
9076;SDS011;4574;51.072;17.174;2023-02-14T04:32:55;10.47;;;8.00;;
9076;SDS011;4574;51.072;17.174;2023-02-14T04:35:23;13.37;;;7.90;;
9076;SDS011;4574;51.072;17.174;2023-02-14T04:37:51;10.43;;;7.27;;
9076;SDS011;4574;51.072;17.174;2023-02-14T04:40:20;9.40;;;7.37;;
9076;SDS011;4574;51.072;17.174;2023-02-14T04:42:50;10.27;;;7.33;;
9076;SDS011;4574;51.072;17.174;2023-02-14T04:45:18;9.67;;;7.63;;
9076;SDS011;4574;51.072;17.174;2023-02-14T04:47:47;8.63;;;6.90;;
9076;SDS011;4574;51.072;17.174;2023-02-14T04:50:15;11.63;;;7.50;;
9076;SDS011;4574;51.072;17.174;2023-02-14T04:52:44;8.93;;;7.27;;
9076;SDS011;4574;51.072;17.174;2023-02-14T04:55:12;7.77;;;6.10;;
9076;SDS011;4574;51.072;17.174;2023-02-14T04:57:41;10.50;;;7.20;;
9076;SDS011;4574;51.072;17.174;2023-02-14T05:00:11;11.63;;;7.57;;
9076;SDS011;4574;51.072;17.174;2023-02-14T05:02:41;10.17;;;7.30;;
9076;SDS011;4574;51.072;17.174;2023-02-14T05:05:09;11.57;;;7.80;;
9076;SDS011;4574;51.072;17.174;2023-02-14T05:07:37;13.33;;;7.77;;
9076;SDS011;4574;51.072;17.174;2023-02-14T05:10:08;10.50;;;7.13;;
9076;SDS011;4574;51.072;17.174;2023-02-14T05:12:37;11.70;;;8.13;;
9076;SDS011;4574;51.072;17.174;2023-02-14T05:15:05;8.53;;;7.20;;
9076;SDS011;4574;51.072;17.174;2023-02-14T05:17:36;9.13;;;6.90;;
9076;SDS011;4574;51.072;17.174;2023-02-14T05:20:04;9.13;;;6.47;;
9076;SDS011;4574;51.072;17.174;2023-02-14T05:22:34;10.10;;;7.90;;
9076;SDS011;4574;51.072;17.174;2023-02-14T05:25:02;10.23;;;7.03;;
9076;SDS011;4574;51.072;17.174;2023-02-14T05:27:31;11.67;;;7.60;;
9076;SDS011;4574;51.072;17.174;2023-02-14T05:30:00;10.47;;;7.53;;
9076;SDS011;4574;51.072;17.174;2023-02-14T05:32:28;14.07;;;7.70;;
9076;SDS011;4574;51.072;17.174;2023-02-14T05:34:58;11.63;;;7.47;;
9076;SDS011;4574;51.072;17.174;2023-02-14T05:37:27;11.23;;;7.53;;
9076;SDS011;4574;51.072;17.174;2023-02-14T05:39:55;10.00;;;7.27;;
9076;SDS011;4574;51.072;17.174;2023-02-14T05:42:24;11.57;;;7.77;;
9076;SDS011;4574;51.072;17.174;2023-02-14T05:44:52;12.57;;;7.90;;
9076;SDS011;4574;51.072;17.174;2023-02-14T05:47:20;13.97;;;9.17;;
9076;SDS011;4574;51.072;17.174;2023-02-14T05:49:49;10.23;;;8.33;;
9076;SDS011;4574;51.072;17.174;2023-02-14T05:52:19;13.47;;;9.17;;
9076;SDS011;4574;51.072;17.174;2023-02-14T05:54:47;14.47;;;9.03;;
9076;SDS011;4574;51.072;17.174;2023-02-14T05:57:16;12.80;;;9.83;;
9076;SDS011;4574;51.072;17.174;2023-02-14T05:59:45;13.80;;;9.10;;
9076;SDS011;4574;51.072;17.174;2023-02-14T06:02:13;12.43;;;9.17;;
9076;SDS011;4574;51.072;17.174;2023-02-14T06:04:42;12.27;;;9.03;;
9076;SDS011;4574;51.072;17.174;2023-02-14T06:07:10;13.40;;;9.67;;
9076;SDS011;4574;51.072;17.174;2023-02-14T06:09:40;14.60;;;9.13;;
9076;SDS011;4574;51.072;17.174;2023-02-14T06:12:08;11.77;;;9.40;;
9076;SDS011;4574;51.072;17.174;2023-02-14T06:14:37;13.17;;;9.20;;
9076;SDS011;4574;51.072;17.174;2023-02-14T06:17:07;13.70;;;9.37;;
9076;SDS011;4574;51.072;17.174;2023-02-14T06:19:36;12.77;;;8.70;;
9076;SDS011;4574;51.072;17.174;2023-02-14T06:22:04;14.90;;;8.87;;
9076;SDS011;4574;51.072;17.174;2023-02-14T06:24:33;15.77;;;9.53;;
9076;SDS011;4574;51.072;17.174;2023-02-14T06:27:03;13.07;;;9.17;;
9076;SDS011;4574;51.072;17.174;2023-02-14T06:29:31;14.73;;;9.77;;
9076;SDS011;4574;51.072;17.174;2023-02-14T06:32:00;14.03;;;9.07;;
9076;SDS011;4574;51.072;17.174;2023-02-14T06:34:32;15.07;;;8.83;;
9076;SDS011;4574;51.072;17.174;2023-02-14T06:37:01;12.10;;;8.97;;
9076;SDS011;4574;51.072;17.174;2023-02-14T06:39:29;13.47;;;9.03;;
9076;SDS011;4574;51.072;17.174;2023-02-14T06:41:58;14.93;;;9.17;;
9076;SDS011;4574;51.072;17.174;2023-02-14T06:44:27;12.10;;;8.50;;
9076;SDS011;4574;51.072;17.174;2023-02-14T06:46:56;13.93;;;9.30;;
9076;SDS011;4574;51.072;17.174;2023-02-14T06:49:25;14.90;;;8.37;;
9076;SDS011;4574;51.072;17.174;2023-02-14T06:51:53;13.67;;;9.03;;
9076;SDS011;4574;51.072;17.174;2023-02-14T06:54:21;13.70;;;10.03;;
9076;SDS011;4574;51.072;17.174;2023-02-14T06:56:50;14.57;;;9.03;;
9076;SDS011;4574;51.072;17.174;2023-02-14T06:59:18;11.83;;;8.87;;
9076;SDS011;4574;51.072;17.174;2023-02-14T07:01:48;14.63;;;9.90;;
9076;SDS011;4574;51.072;17.174;2023-02-14T07:04:17;15.03;;;9.77;;
9076;SDS011;4574;51.072;17.174;2023-02-14T07:06:45;13.53;;;9.43;;
9076;SDS011;4574;51.072;17.174;2023-02-14T07:09:14;18.03;;;9.83;;
9076;SDS011;4574;51.072;17.174;2023-02-14T07:11:43;15.57;;;9.93;;
9076;SDS011;4574;51.072;17.174;2023-02-14T07:14:12;14.13;;;9.93;;
9076;SDS011;4574;51.072;17.174;2023-02-14T07:16:41;14.30;;;9.27;;
9076;SDS011;4574;51.072;17.174;2023-02-14T07:19:10;13.87;;;9.83;;
9076;SDS011;4574;51.072;17.174;2023-02-14T07:21:39;13.77;;;9.67;;
9076;SDS011;4574;51.072;17.174;2023-02-14T07:24:07;14.63;;;9.87;;
9076;SDS011;4574;51.072;17.174;2023-02-14T07:26:36;13.17;;;9.73;;
9076;SDS011;4574;51.072;17.174;2023-02-14T07:29:04;14.07;;;9.03;;
9076;SDS011;4574;51.072;17.174;2023-02-14T07:31:32;11.97;;;9.20;;
9076;SDS011;4574;51.072;17.174;2023-02-14T07:34:01;14.93;;;9.27;;
9076;SDS011;4574;51.072;17.174;2023-02-14T07:36:31;19.07;;;10.50;;
9076;SDS011;4574;51.072;17.174;2023-02-14T07:38:59;14.70;;;8.97;;
9076;SDS011;4574;51.072;17.174;2023-02-14T07:41:28;13.17;;;8.90;;
9076;SDS011;4574;51.072;17.174;2023-02-14T07:43:56;12.67;;;9.07;;
9076;SDS011;4574;51.072;17.174;2023-02-14T07:46:25;15.93;;;9.80;;
9076;SDS011;4574;51.072;17.174;2023-02-14T07:48:53;17.07;;;9.97;;
9076;SDS011;4574;51.072;17.174;2023-02-14T07:51:22;14.60;;;9.47;;
9076;SDS011;4574;51.072;17.174;2023-02-14T07:53:51;17.03;;;9.97;;
9076;SDS011;4574;51.072;17.174;2023-02-14T07:56:20;14.03;;;9.57;;
9076;SDS011;4574;51.072;17.174;2023-02-14T07:58:48;12.03;;;8.63;;
9076;SDS011;4574;51.072;17.174;2023-02-14T08:01:17;13.80;;;8.63;;
9076;SDS011;4574;51.072;17.174;2023-02-14T08:03:46;12.77;;;8.63;;
9076;SDS011;4574;51.072;17.174;2023-02-14T08:06:15;12.80;;;8.67;;
9076;SDS011;4574;51.072;17.174;2023-02-14T08:08:45;13.70;;;9.07;;
9076;SDS011;4574;51.072;17.174;2023-02-14T08:11:15;13.23;;;9.60;;
9076;SDS011;4574;51.072;17.174;2023-02-14T08:14:03;11.50;;;8.90;;
9076;SDS011;4574;51.072;17.174;2023-02-14T08:16:32;20.50;;;9.20;;
9076;SDS011;4574;51.072;17.174;2023-02-14T08:19:01;13.60;;;8.33;;
9076;SDS011;4574;51.072;17.174;2023-02-14T08:21:29;12.07;;;8.17;;
9076;SDS011;4574;51.072;17.174;2023-02-14T08:23:58;16.53;;;8.60;;
9076;SDS011;4574;51.072;17.174;2023-02-14T08:26:28;12.77;;;8.70;;
9076;SDS011;4574;51.072;17.174;2023-02-14T08:28:57;10.97;;;8.70;;
9076;SDS011;4574;51.072;17.174;2023-02-14T08:31:26;11.00;;;7.93;;
9076;SDS011;4574;51.072;17.174;2023-02-14T08:34:01;13.07;;;8.10;;
9076;SDS011;4574;51.072;17.174;2023-02-14T08:36:30;13.63;;;8.43;;
9076;SDS011;4574;51.072;17.174;2023-02-14T08:38:59;12.77;;;8.33;;
9076;SDS011;4574;51.072;17.174;2023-02-14T08:41:29;13.83;;;8.37;;
9076;SDS011;4574;51.072;17.174;2023-02-14T08:43:58;12.73;;;8.30;;
9076;SDS011;4574;51.072;17.174;2023-02-14T08:46:27;13.30;;;9.00;;
9076;SDS011;4574;51.072;17.174;2023-02-14T08:48:56;12.53;;;7.97;;
9076;SDS011;4574;51.072;17.174;2023-02-14T08:51:25;14.37;;;8.37;;
9076;SDS011;4574;51.072;17.174;2023-02-14T08:53:53;12.47;;;8.70;;
9076;SDS011;4574;51.072;17.174;2023-02-14T08:56:22;13.63;;;8.20;;
9076;SDS011;4574;51.072;17.174;2023-02-14T08:58:52;16.10;;;8.30;;
9076;SDS011;4574;51.072;17.174;2023-02-14T09:01:21;14.63;;;9.00;;
9076;SDS011;4574;51.072;17.174;2023-02-14T09:03:49;11.47;;;7.83;;
9076;SDS011;4574;51.072;17.174;2023-02-14T09:06:18;10.77;;;8.30;;
9076;SDS011;4574;51.072;17.174;2023-02-14T09:08:46;13.07;;;8.77;;
9076;SDS011;4574;51.072;17.174;2023-02-14T09:11:16;12.43;;;8.17;;
9076;SDS011;4574;51.072;17.174;2023-02-14T09:13:46;14.90;;;8.77;;
9076;SDS011;4574;51.072;17.174;2023-02-14T09:16:17;11.37;;;8.47;;
9076;SDS011;4574;51.072;17.174;2023-02-14T09:18:47;12.90;;;7.87;;
9076;SDS011;4574;51.072;17.174;2023-02-14T09:21:16;13.13;;;8.67;;
9076;SDS011;4574;51.072;17.174;2023-02-14T09:23:46;13.23;;;8.53;;
9076;SDS011;4574;51.072;17.174;2023-02-14T09:26:15;15.20;;;9.17;;
9076;SDS011;4574;51.072;17.174;2023-02-14T09:28:44;11.90;;;8.20;;
9076;SDS011;4574;51.072;17.174;2023-02-14T09:31:15;12.53;;;9.33;;
9076;SDS011;4574;51.072;17.174;2023-02-14T09:33:46;11.73;;;7.83;;
9076;SDS011;4574;51.072;17.174;2023-02-14T09:36:33;15.30;;;8.27;;
9076;SDS011;4574;51.072;17.174;2023-02-14T09:39:02;10.73;;;7.50;;
9076;SDS011;4574;51.072;17.174;2023-02-14T09:41:45;14.30;;;8.50;;
9076;SDS011;4574;51.072;17.174;2023-02-14T09:44:31;11.40;;;8.17;;
9076;SDS011;4574;51.072;17.174;2023-02-14T09:47:06;11.23;;;8.07;;
9076;SDS011;4574;51.072;17.174;2023-02-14T09:49:43;15.47;;;8.53;;
9076;SDS011;4574;51.072;17.174;2023-02-14T09:52:13;11.27;;;7.73;;
9076;SDS011;4574;51.072;17.174;2023-02-14T09:54:47;11.43;;;7.83;;
9076;SDS011;4574;51.072;17.174;2023-02-14T09:57:21;11.70;;;7.83;;
9076;SDS011;4574;51.072;17.174;2023-02-14T09:59:58;13.37;;;7.73;;
9076;SDS011;4574;51.072;17.174;2023-02-14T10:02:38;12.63;;;8.13;;
9076;SDS011;4574;51.072;17.174;2023-02-14T10:05:14;11.70;;;7.23;;
9076;SDS011;4574;51.072;17.174;2023-02-14T10:07:54;10.90;;;7.90;;
9076;SDS011;4574;51.072;17.174;2023-02-14T10:10:26;14.33;;;7.87;;
9076;SDS011;4574;51.072;17.174;2023-02-14T10:13:00;10.03;;;7.07;;
9076;SDS011;4574;51.072;17.174;2023-02-14T10:15:33;14.70;;;6.73;;
9076;SDS011;4574;51.072;17.174;2023-02-14T10:18:09;12.90;;;7.53;;
9076;SDS011;4574;51.072;17.174;2023-02-14T10:20:45;9.83;;;7.10;;
9076;SDS011;4574;51.072;17.174;2023-02-14T10:23:20;11.23;;;7.70;;
9076;SDS011;4574;51.072;17.174;2023-02-14T10:25:56;8.37;;;6.20;;
9076;SDS011;4574;51.072;17.174;2023-02-14T10:28:31;14.13;;;7.07;;
9076;SDS011;4574;51.072;17.174;2023-02-14T10:31:14;8.83;;;6.27;;
9076;SDS011;4574;51.072;17.174;2023-02-14T10:33:50;11.17;;;6.83;;
9076;SDS011;4574;51.072;17.174;2023-02-14T10:36:29;11.30;;;7.10;;
9076;SDS011;4574;51.072;17.174;2023-02-14T10:39:14;15.57;;;7.00;;
9076;SDS011;4574;51.072;17.174;2023-02-14T10:41:51;13.03;;;7.00;;
9076;SDS011;4574;51.072;17.174;2023-02-14T10:44:33;12.00;;;7.20;;
9076;SDS011;4574;51.072;17.174;2023-02-14T10:47:11;10.10;;;6.70;;
9076;SDS011;4574;51.072;17.174;2023-02-14T10:49:57;9.97;;;7.10;;
9076;SDS011;4574;51.072;17.174;2023-02-14T10:52:36;9.87;;;7.07;;
9076;SDS011;4574;51.072;17.174;2023-02-14T10:55:10;10.13;;;6.90;;
9076;SDS011;4574;51.072;17.174;2023-02-14T10:57:57;10.97;;;8.40;;
9076;SDS011;4574;51.072;17.174;2023-02-14T11:00:32;14.53;;;7.93;;
9076;SDS011;4574;51.072;17.174;2023-02-14T11:03:04;11.70;;;7.20;;
9076;SDS011;4574;51.072;17.174;2023-02-14T11:05:37;11.23;;;7.27;;
9076;SDS011;4574;51.072;17.174;2023-02-14T11:08:16;10.40;;;7.43;;
9076;SDS011;4574;51.072;17.174;2023-02-14T11:10:51;8.60;;;6.87;;
9076;SDS011;4574;51.072;17.174;2023-02-14T11:13:25;12.20;;;7.30;;
9076;SDS011;4574;51.072;17.174;2023-02-14T11:15:59;10.77;;;6.97;;
9076;SDS011;4574;51.072;17.174;2023-02-14T11:18:30;10.90;;;6.83;;
9076;SDS011;4574;51.072;17.174;2023-02-14T11:21:04;10.90;;;6.83;;
9076;SDS011;4574;51.072;17.174;2023-02-14T11:23:36;9.33;;;7.00;;
9076;SDS011;4574;51.072;17.174;2023-02-14T11:26:13;9.73;;;7.10;;
9076;SDS011;4574;51.072;17.174;2023-02-14T11:28:48;12.77;;;7.63;;
9076;SDS011;4574;51.072;17.174;2023-02-14T11:31:27;11.00;;;6.83;;
9076;SDS011;4574;51.072;17.174;2023-02-14T11:33:59;9.70;;;6.90;;
9076;SDS011;4574;51.072;17.174;2023-02-14T11:36:31;13.57;;;8.17;;
9076;SDS011;4574;51.072;17.174;2023-02-14T11:39:15;12.53;;;6.77;;
9076;SDS011;4574;51.072;17.174;2023-02-14T11:41:51;8.17;;;6.47;;
9076;SDS011;4574;51.072;17.174;2023-02-14T11:44:22;11.40;;;6.67;;
9076;SDS011;4574;51.072;17.174;2023-02-14T11:46:53;7.83;;;6.43;;
9076;SDS011;4574;51.072;17.174;2023-02-14T11:49:25;7.97;;;6.13;;
9076;SDS011;4574;51.072;17.174;2023-02-14T11:52:00;12.73;;;6.10;;
9076;SDS011;4574;51.072;17.174;2023-02-14T11:54:37;9.20;;;5.73;;
9076;SDS011;4574;51.072;17.174;2023-02-14T11:57:10;8.23;;;5.60;;
9076;SDS011;4574;51.072;17.174;2023-02-14T11:59:45;10.13;;;6.27;;
9076;SDS011;4574;51.072;17.174;2023-02-14T12:05:05;9.67;;;5.70;;
9076;SDS011;4574;51.072;17.174;2023-02-14T12:07:46;6.03;;;4.40;;
9076;SDS011;4574;51.072;17.174;2023-02-14T12:10:18;8.10;;;5.30;;
9076;SDS011;4574;51.072;17.174;2023-02-14T12:12:51;8.97;;;4.93;;
9076;SDS011;4574;51.072;17.174;2023-02-14T12:15:24;7.50;;;4.63;;
9076;SDS011;4574;51.072;17.174;2023-02-14T12:17:58;6.13;;;4.90;;
9076;SDS011;4574;51.072;17.174;2023-02-14T12:20:38;8.23;;;4.20;;
9076;SDS011;4574;51.072;17.174;2023-02-14T12:23:14;9.53;;;4.60;;
9076;SDS011;4574;51.072;17.174;2023-02-14T12:25:47;7.50;;;4.03;;
9076;SDS011;4574;51.072;17.174;2023-02-14T12:28:20;5.07;;;3.93;;
9076;SDS011;4574;51.072;17.174;2023-02-14T12:30:56;5.77;;;4.00;;
9076;SDS011;4574;51.072;17.174;2023-02-14T12:33:25;11.07;;;3.67;;
9076;SDS011;4574;51.072;17.174;2023-02-14T12:35:56;5.13;;;3.00;;
9076;SDS011;4574;51.072;17.174;2023-02-14T12:38:36;3.63;;;3.17;;
9076;SDS011;4574;51.072;17.174;2023-02-14T12:41:16;4.60;;;3.10;;
9076;SDS011;4574;51.072;17.174;2023-02-14T12:43:55;5.70;;;3.10;;
9076;SDS011;4574;51.072;17.174;2023-02-14T12:46:30;4.83;;;2.80;;
9076;SDS011;4574;51.072;17.174;2023-02-14T12:49:17;4.20;;;2.70;;
9076;SDS011;4574;51.072;17.174;2023-02-14T12:51:58;7.83;;;3.10;;
9076;SDS011;4574;51.072;17.174;2023-02-14T12:54:42;5.50;;;3.40;;
9076;SDS011;4574;51.072;17.174;2023-02-14T12:57:20;7.77;;;4.10;;
9076;SDS011;4574;51.072;17.174;2023-02-14T12:59:59;6.83;;;3.17;;
9076;SDS011;4574;51.072;17.174;2023-02-14T13:02:44;4.30;;;3.47;;
9076;SDS011;4574;51.072;17.174;2023-02-14T13:05:30;3.90;;;3.17;;
9076;SDS011;4574;51.072;17.174;2023-02-14T13:08:10;4.90;;;3.30;;
9076;SDS011;4574;51.072;17.174;2023-02-14T13:10:53;4.27;;;3.37;;
9076;SDS011;4574;51.072;17.174;2023-02-14T13:13:31;5.43;;;2.97;;
9076;SDS011;4574;51.072;17.174;2023-02-14T13:16:07;4.27;;;3.13;;
9076;SDS011;4574;51.072;17.174;2023-02-14T13:18:46;4.37;;;3.07;;
9076;SDS011;4574;51.072;17.174;2023-02-14T13:21:21;5.43;;;3.17;;
9076;SDS011;4574;51.072;17.174;2023-02-14T13:23:53;5.53;;;3.50;;
9076;SDS011;4574;51.072;17.174;2023-02-14T13:26:29;6.03;;;3.27;;
9076;SDS011;4574;51.072;17.174;2023-02-14T13:29:03;3.17;;;2.80;;
9076;SDS011;4574;51.072;17.174;2023-02-14T13:31:37;4.37;;;3.00;;
9076;SDS011;4574;51.072;17.174;2023-02-14T13:34:07;4.17;;;3.03;;
9076;SDS011;4574;51.072;17.174;2023-02-14T13:36:47;3.53;;;2.67;;
9076;SDS011;4574;51.072;17.174;2023-02-14T13:39:19;7.90;;;3.50;;
9076;SDS011;4574;51.072;17.174;2023-02-14T13:41:56;3.30;;;3.00;;
9076;SDS011;4574;51.072;17.174;2023-02-14T13:44:43;3.57;;;3.10;;
9076;SDS011;4574;51.072;17.174;2023-02-14T13:47:15;4.93;;;3.80;;
9076;SDS011;4574;51.072;17.174;2023-02-14T13:49:46;5.70;;;4.27;;
9076;SDS011;4574;51.072;17.174;2023-02-14T13:55:13;6.03;;;3.67;;
9076;SDS011;4574;51.072;17.174;2023-02-14T13:57:46;7.20;;;3.93;;
9076;SDS011;4574;51.072;17.174;2023-02-14T14:00:35;4.20;;;3.57;;
9076;SDS011;4574;51.072;17.174;2023-02-14T14:03:06;6.97;;;3.80;;
9076;SDS011;4574;51.072;17.174;2023-02-14T14:08:37;4.97;;;4.47;;
9076;SDS011;4574;51.072;17.174;2023-02-14T14:17:14;6.27;;;4.40;;
9076;SDS011;4574;51.072;17.174;2023-02-14T14:19:46;4.47;;;4.03;;
9076;SDS011;4574;51.072;17.174;2023-02-14T14:22:15;10.27;;;4.33;;
9076;SDS011;4574;51.072;17.174;2023-02-14T14:24:52;8.03;;;5.20;;
9076;SDS011;4574;51.072;17.174;2023-02-14T14:27:23;4.97;;;4.53;;
9076;SDS011;4574;51.072;17.174;2023-02-14T14:29:57;5.40;;;4.90;;
9076;SDS011;4574;51.072;17.174;2023-02-14T14:32:28;6.20;;;4.70;;
9076;SDS011;4574;51.072;17.174;2023-02-14T14:34:58;7.83;;;4.93;;
9076;SDS011;4574;51.072;17.174;2023-02-14T14:37:29;7.53;;;5.40;;
9076;SDS011;4574;51.072;17.174;2023-02-14T14:40:00;8.47;;;5.60;;
9076;SDS011;4574;51.072;17.174;2023-02-14T14:42:33;7.87;;;5.50;;
9076;SDS011;4574;51.072;17.174;2023-02-14T14:45:06;9.07;;;5.60;;
9076;SDS011;4574;51.072;17.174;2023-02-14T14:47:45;8.83;;;6.20;;
9076;SDS011;4574;51.072;17.174;2023-02-14T14:52:48;5.67;;;4.77;;
9076;SDS011;4574;51.072;17.174;2023-02-14T14:55:20;6.27;;;4.90;;
9076;SDS011;4574;51.072;17.174;2023-02-14T14:57:51;7.37;;;5.37;;
9076;SDS011;4574;51.072;17.174;2023-02-14T15:00:24;6.53;;;5.33;;
9076;SDS011;4574;51.072;17.174;2023-02-14T15:02:58;7.30;;;5.70;;
9076;SDS011;4574;51.072;17.174;2023-02-14T15:05:29;8.47;;;6.10;;
9076;SDS011;4574;51.072;17.174;2023-02-14T15:08:12;9.93;;;7.40;;
9076;SDS011;4574;51.072;17.174;2023-02-14T15:10:47;7.93;;;6.13;;
9076;SDS011;4574;51.072;17.174;2023-02-14T15:13:20;15.27;;;9.60;;
9076;SDS011;4574;51.072;17.174;2023-02-14T15:16:21;12.27;;;8.37;;
9076;SDS011;4574;51.072;17.174;2023-02-14T15:18:53;9.97;;;6.60;;
9076;SDS011;4574;51.072;17.174;2023-02-14T15:21:24;8.50;;;6.17;;
9076;SDS011;4574;51.072;17.174;2023-02-14T15:23:53;8.07;;;5.40;;
9076;SDS011;4574;51.072;17.174;2023-02-14T15:26:22;7.53;;;4.77;;
9076;SDS011;4574;51.072;17.174;2023-02-14T15:28:55;8.30;;;6.13;;
9076;SDS011;4574;51.072;17.174;2023-02-14T15:31:30;14.20;;;10.53;;
9076;SDS011;4574;51.072;17.174;2023-02-14T15:34:01;10.37;;;7.30;;
9076;SDS011;4574;51.072;17.174;2023-02-14T15:36:32;11.73;;;6.97;;
9076;SDS011;4574;51.072;17.174;2023-02-14T15:39:02;8.30;;;5.97;;
9076;SDS011;4574;51.072;17.174;2023-02-14T15:41:35;9.87;;;6.47;;
9076;SDS011;4574;51.072;17.174;2023-02-14T15:44:16;8.27;;;6.37;;
9076;SDS011;4574;51.072;17.174;2023-02-14T15:46:47;10.73;;;5.63;;
9076;SDS011;4574;51.072;17.174;2023-02-14T15:49:21;10.23;;;5.43;;